sensor_id;sensor_type;location;lat;lon;timestamp;P1;durP1;ratioP1;P2;durP2;ratioP2
44143;SDS011;43510;51.920;4.492;2022-12-18T00:01:21;58.47;;;19.97;;
44143;SDS011;43510;51.920;4.492;2022-12-18T00:03:47;58.37;;;18.20;;
44143;SDS011;43510;51.920;4.492;2022-12-18T00:06:15;62.33;;;18.83;;
44143;SDS011;43510;51.920;4.492;2022-12-18T00:08:44;56.47;;;19.80;;
44143;SDS011;43510;51.920;4.492;2022-12-18T00:11:14;61.33;;;19.70;;
44143;SDS011;43510;51.920;4.492;2022-12-18T00:13:41;73.83;;;21.47;;
44143;SDS011;43510;51.920;4.492;2022-12-18T00:16:18;56.30;;;18.90;;
44143;SDS011;43510;51.920;4.492;2022-12-18T00:18:46;58.07;;;19.20;;
44143;SDS011;43510;51.920;4.492;2022-12-18T00:21:12;76.27;;;22.20;;
44143;SDS011;43510;51.920;4.492;2022-12-18T00:23:39;72.97;;;21.03;;
44143;SDS011;43510;51.920;4.492;2022-12-18T00:26:07;56.80;;;18.80;;
44143;SDS011;43510;51.920;4.492;2022-12-18T00:28:35;56.97;;;18.50;;
44143;SDS011;43510;51.920;4.492;2022-12-18T00:31:05;56.63;;;18.03;;
44143;SDS011;43510;51.920;4.492;2022-12-18T00:33:32;63.72;;;20.60;;
44143;SDS011;43510;51.920;4.492;2022-12-18T00:36:05;68.33;;;20.23;;
44143;SDS011;43510;51.920;4.492;2022-12-18T00:38:32;65.20;;;19.30;;
44143;SDS011;43510;51.920;4.492;2022-12-18T00:40:58;64.80;;;19.30;;
44143;SDS011;43510;51.920;4.492;2022-12-18T00:43:23;61.13;;;19.30;;
44143;SDS011;43510;51.920;4.492;2022-12-18T00:45:48;80.73;;;20.00;;
44143;SDS011;43510;51.920;4.492;2022-12-18T00:48:14;57.60;;;17.17;;
44143;SDS011;43510;51.920;4.492;2022-12-18T00:50:39;63.30;;;19.90;;
44143;SDS011;43510;51.920;4.492;2022-12-18T00:53:05;75.53;;;20.30;;
44143;SDS011;43510;51.920;4.492;2022-12-18T00:55:31;66.30;;;20.80;;
44143;SDS011;43510;51.920;4.492;2022-12-18T00:57:57;65.73;;;20.47;;
44143;SDS011;43510;51.920;4.492;2022-12-18T01:00:22;61.83;;;18.60;;
44143;SDS011;43510;51.920;4.492;2022-12-18T01:02:48;60.37;;;18.40;;
44143;SDS011;43510;51.920;4.492;2022-12-18T01:05:14;60.57;;;19.40;;
44143;SDS011;43510;51.920;4.492;2022-12-18T01:07:40;71.90;;;20.30;;
44143;SDS011;43510;51.920;4.492;2022-12-18T01:10:06;54.80;;;18.33;;
44143;SDS011;43510;51.920;4.492;2022-12-18T01:12:33;59.33;;;19.97;;
44143;SDS011;43510;51.920;4.492;2022-12-18T01:14:58;66.50;;;19.03;;
44143;SDS011;43510;51.920;4.492;2022-12-18T01:17:24;76.53;;;19.33;;
44143;SDS011;43510;51.920;4.492;2022-12-18T01:19:49;62.03;;;18.43;;
44143;SDS011;43510;51.920;4.492;2022-12-18T01:22:15;62.13;;;20.27;;
44143;SDS011;43510;51.920;4.492;2022-12-18T01:24:40;68.20;;;20.27;;
44143;SDS011;43510;51.920;4.492;2022-12-18T01:27:05;71.40;;;18.50;;
44143;SDS011;43510;51.920;4.492;2022-12-18T01:29:33;64.73;;;19.00;;
44143;SDS011;43510;51.920;4.492;2022-12-18T01:31:58;53.63;;;17.93;;
44143;SDS011;43510;51.920;4.492;2022-12-18T01:34:24;65.23;;;20.63;;
44143;SDS011;43510;51.920;4.492;2022-12-18T01:36:49;55.33;;;18.03;;
44143;SDS011;43510;51.920;4.492;2022-12-18T01:39:17;65.60;;;17.87;;
44143;SDS011;43510;51.920;4.492;2022-12-18T01:41:43;56.53;;;15.67;;
44143;SDS011;43510;51.920;4.492;2022-12-18T01:47:32;57.97;;;17.33;;
44143;SDS011;43510;51.920;4.492;2022-12-18T01:50:11;46.93;;;15.70;;
44143;SDS011;43510;51.920;4.492;2022-12-18T01:52:41;47.90;;;16.00;;
44143;SDS011;43510;51.920;4.492;2022-12-18T01:55:10;58.23;;;17.27;;
44143;SDS011;43510;51.920;4.492;2022-12-18T01:57:37;61.33;;;18.73;;
44143;SDS011;43510;51.920;4.492;2022-12-18T02:00:07;53.60;;;16.40;;
44143;SDS011;43510;51.920;4.492;2022-12-18T02:02:39;54.00;;;18.77;;
44143;SDS011;43510;51.920;4.492;2022-12-18T02:05:09;62.43;;;18.97;;
44143;SDS011;43510;51.920;4.492;2022-12-18T02:11:04;59.27;;;17.90;;
44143;SDS011;43510;51.920;4.492;2022-12-18T02:13:58;57.83;;;18.67;;
44143;SDS011;43510;51.920;4.492;2022-12-18T02:18:58;70.20;;;19.73;;
44143;SDS011;43510;51.920;4.492;2022-12-18T02:21:39;53.90;;;16.95;;
44143;SDS011;43510;51.920;4.492;2022-12-18T02:26:55;55.93;;;17.23;;
44143;SDS011;43510;51.920;4.492;2022-12-18T02:29:26;49.22;;;17.00;;
44143;SDS011;43510;51.920;4.492;2022-12-18T02:32:17;59.97;;;18.67;;
44143;SDS011;43510;51.920;4.492;2022-12-18T02:34:49;54.87;;;16.77;;
44143;SDS011;43510;51.920;4.492;2022-12-18T02:37:17;44.37;;;15.83;;
44143;SDS011;43510;51.920;4.492;2022-12-18T02:39:46;50.53;;;17.07;;
44143;SDS011;43510;51.920;4.492;2022-12-18T02:42:13;51.33;;;15.87;;
44143;SDS011;43510;51.920;4.492;2022-12-18T02:44:44;59.33;;;16.77;;
44143;SDS011;43510;51.920;4.492;2022-12-18T02:47:14;50.00;;;16.33;;
44143;SDS011;43510;51.920;4.492;2022-12-18T02:49:49;54.00;;;18.30;;
44143;SDS011;43510;51.920;4.492;2022-12-18T03:01:09;50.20;;;16.87;;
44143;SDS011;43510;51.920;4.492;2022-12-18T03:03:56;50.80;;;17.30;;
44143;SDS011;43510;51.920;4.492;2022-12-18T03:06:27;47.67;;;17.20;;
44143;SDS011;43510;51.920;4.492;2022-12-18T03:09:01;47.43;;;15.90;;
44143;SDS011;43510;51.920;4.492;2022-12-18T03:11:36;54.73;;;16.53;;
44143;SDS011;43510;51.920;4.492;2022-12-18T03:14:23;51.13;;;17.33;;
44143;SDS011;43510;51.920;4.492;2022-12-18T03:16:53;48.87;;;17.13;;
44143;SDS011;43510;51.920;4.492;2022-12-18T03:19:24;44.20;;;14.90;;
44143;SDS011;43510;51.920;4.492;2022-12-18T03:21:53;50.83;;;16.60;;
44143;SDS011;43510;51.920;4.492;2022-12-18T03:24:22;82.57;;;19.23;;
44143;SDS011;43510;51.920;4.492;2022-12-18T03:26:52;59.50;;;17.73;;
44143;SDS011;43510;51.920;4.492;2022-12-18T03:29:25;50.93;;;17.00;;
44143;SDS011;43510;51.920;4.492;2022-12-18T03:32:02;57.57;;;18.70;;
44143;SDS011;43510;51.920;4.492;2022-12-18T03:34:33;57.97;;;16.73;;
44143;SDS011;43510;51.920;4.492;2022-12-18T03:37:03;55.57;;;16.90;;
44143;SDS011;43510;51.920;4.492;2022-12-18T03:39:30;46.77;;;16.43;;
44143;SDS011;43510;51.920;4.492;2022-12-18T03:42:10;48.37;;;14.47;;
44143;SDS011;43510;51.920;4.492;2022-12-18T03:44:45;46.57;;;13.57;;
44143;SDS011;43510;51.920;4.492;2022-12-18T03:55:49;46.20;;;15.40;;
44143;SDS011;43510;51.920;4.492;2022-12-18T03:58:17;48.97;;;14.83;;
44143;SDS011;43510;51.920;4.492;2022-12-18T04:00:48;43.78;;;15.35;;
44143;SDS011;43510;51.920;4.492;2022-12-18T04:03:16;64.67;;;16.93;;
44143;SDS011;43510;51.920;4.492;2022-12-18T04:05:45;50.20;;;16.50;;
44143;SDS011;43510;51.920;4.492;2022-12-18T04:08:15;50.23;;;16.60;;
44143;SDS011;43510;51.920;4.492;2022-12-18T04:10:41;56.23;;;16.40;;
44143;SDS011;43510;51.920;4.492;2022-12-18T04:13:06;49.37;;;17.17;;
44143;SDS011;43510;51.920;4.492;2022-12-18T04:15:33;48.80;;;16.73;;
44143;SDS011;43510;51.920;4.492;2022-12-18T04:18:00;49.70;;;14.60;;
44143;SDS011;43510;51.920;4.492;2022-12-18T04:20:26;37.30;;;13.33;;
44143;SDS011;43510;51.920;4.492;2022-12-18T04:22:52;52.53;;;15.80;;
44143;SDS011;43510;51.920;4.492;2022-12-18T04:25:17;40.90;;;13.87;;
44143;SDS011;43510;51.920;4.492;2022-12-18T04:27:43;50.27;;;15.37;;
44143;SDS011;43510;51.920;4.492;2022-12-18T04:30:08;41.63;;;15.93;;
44143;SDS011;43510;51.920;4.492;2022-12-18T04:32:34;52.07;;;15.97;;
44143;SDS011;43510;51.920;4.492;2022-12-18T04:35:01;53.47;;;16.70;;
44143;SDS011;43510;51.920;4.492;2022-12-18T04:37:29;51.23;;;15.93;;
44143;SDS011;43510;51.920;4.492;2022-12-18T04:39:54;44.53;;;15.33;;
44143;SDS011;43510;51.920;4.492;2022-12-18T04:42:20;48.17;;;15.43;;
44143;SDS011;43510;51.920;4.492;2022-12-18T04:44:45;42.90;;;14.27;;
44143;SDS011;43510;51.920;4.492;2022-12-18T04:47:10;48.90;;;14.23;;
44143;SDS011;43510;51.920;4.492;2022-12-18T04:49:36;47.60;;;14.20;;
44143;SDS011;43510;51.920;4.492;2022-12-18T04:52:01;42.23;;;14.40;;
44143;SDS011;43510;51.920;4.492;2022-12-18T04:54:28;44.17;;;15.60;;
44143;SDS011;43510;51.920;4.492;2022-12-18T04:56:53;42.77;;;13.93;;
44143;SDS011;43510;51.920;4.492;2022-12-18T04:59:19;43.07;;;15.53;;
44143;SDS011;43510;51.920;4.492;2022-12-18T05:01:44;49.73;;;15.80;;
44143;SDS011;43510;51.920;4.492;2022-12-18T05:04:10;49.20;;;17.10;;
44143;SDS011;43510;51.920;4.492;2022-12-18T05:06:36;55.27;;;16.37;;
44143;SDS011;43510;51.920;4.492;2022-12-18T05:09:01;48.00;;;14.17;;
44143;SDS011;43510;51.920;4.492;2022-12-18T05:11:26;29.17;;;11.93;;
44143;SDS011;43510;51.920;4.492;2022-12-18T05:13:52;40.33;;;14.57;;
44143;SDS011;43510;51.920;4.492;2022-12-18T05:16:17;42.30;;;13.80;;
44143;SDS011;43510;51.920;4.492;2022-12-18T05:18:42;44.53;;;14.13;;
44143;SDS011;43510;51.920;4.492;2022-12-18T05:21:08;45.90;;;14.20;;
44143;SDS011;43510;51.920;4.492;2022-12-18T05:23:33;39.13;;;13.60;;
44143;SDS011;43510;51.920;4.492;2022-12-18T05:26:00;47.90;;;14.83;;
44143;SDS011;43510;51.920;4.492;2022-12-18T05:28:28;49.30;;;14.63;;
44143;SDS011;43510;51.920;4.492;2022-12-18T05:30:56;41.63;;;13.37;;
44143;SDS011;43510;51.920;4.492;2022-12-18T05:33:24;38.27;;;14.87;;
44143;SDS011;43510;51.920;4.492;2022-12-18T05:35:54;28.73;;;12.53;;
44143;SDS011;43510;51.920;4.492;2022-12-18T05:38:28;39.20;;;13.67;;
44143;SDS011;43510;51.920;4.492;2022-12-18T05:40:55;37.80;;;14.57;;
44143;SDS011;43510;51.920;4.492;2022-12-18T05:43:21;49.83;;;15.37;;
44143;SDS011;43510;51.920;4.492;2022-12-18T05:45:47;33.10;;;12.57;;
44143;SDS011;43510;51.920;4.492;2022-12-18T05:48:13;35.03;;;12.07;;
44143;SDS011;43510;51.920;4.492;2022-12-18T05:50:40;38.83;;;12.37;;
44143;SDS011;43510;51.920;4.492;2022-12-18T05:53:07;35.07;;;13.03;;
44143;SDS011;43510;51.920;4.492;2022-12-18T05:55:33;35.00;;;12.93;;
44143;SDS011;43510;51.920;4.492;2022-12-18T05:58:03;39.53;;;13.23;;
44143;SDS011;43510;51.920;4.492;2022-12-18T06:00:31;34.77;;;13.70;;
44143;SDS011;43510;51.920;4.492;2022-12-18T06:02:58;41.13;;;12.80;;
44143;SDS011;43510;51.920;4.492;2022-12-18T06:05:24;32.87;;;12.53;;
44143;SDS011;43510;51.920;4.492;2022-12-18T06:07:49;39.17;;;13.63;;
44143;SDS011;43510;51.920;4.492;2022-12-18T06:10:15;34.07;;;11.87;;
44143;SDS011;43510;51.920;4.492;2022-12-18T06:12:40;29.33;;;11.50;;
44143;SDS011;43510;51.920;4.492;2022-12-18T06:15:06;34.77;;;13.30;;
44143;SDS011;43510;51.920;4.492;2022-12-18T06:17:32;38.77;;;14.17;;
44143;SDS011;43510;51.920;4.492;2022-12-18T06:19:59;33.90;;;13.10;;
44143;SDS011;43510;51.920;4.492;2022-12-18T06:22:26;26.37;;;11.33;;
44143;SDS011;43510;51.920;4.492;2022-12-18T06:24:52;37.53;;;12.67;;
44143;SDS011;43510;51.920;4.492;2022-12-18T06:27:17;28.73;;;11.33;;
44143;SDS011;43510;51.920;4.492;2022-12-18T06:29:43;28.37;;;11.87;;
44143;SDS011;43510;51.920;4.492;2022-12-18T06:32:08;28.97;;;12.07;;
44143;SDS011;43510;51.920;4.492;2022-12-18T06:34:34;26.97;;;10.50;;
44143;SDS011;43510;51.920;4.492;2022-12-18T06:36:59;29.40;;;10.90;;
44143;SDS011;43510;51.920;4.492;2022-12-18T06:39:26;20.60;;;9.67;;
44143;SDS011;43510;51.920;4.492;2022-12-18T06:41:52;28.97;;;9.93;;
44143;SDS011;43510;51.920;4.492;2022-12-18T06:44:18;34.47;;;10.90;;
44143;SDS011;43510;51.920;4.492;2022-12-18T06:46:43;26.27;;;10.43;;
44143;SDS011;43510;51.920;4.492;2022-12-18T06:49:09;28.17;;;9.70;;
44143;SDS011;43510;51.920;4.492;2022-12-18T06:51:35;25.97;;;10.57;;
44143;SDS011;43510;51.920;4.492;2022-12-18T06:54:01;28.27;;;10.90;;
44143;SDS011;43510;51.920;4.492;2022-12-18T06:58:55;24.93;;;10.33;;
44143;SDS011;43510;51.920;4.492;2022-12-18T07:01:20;27.63;;;10.87;;
44143;SDS011;43510;51.920;4.492;2022-12-18T07:03:47;31.03;;;9.87;;
44143;SDS011;43510;51.920;4.492;2022-12-18T07:06:17;25.43;;;9.40;;
44143;SDS011;43510;51.920;4.492;2022-12-18T07:08:44;26.40;;;9.83;;
44143;SDS011;43510;51.920;4.492;2022-12-18T07:11:11;27.07;;;9.47;;
44143;SDS011;43510;51.920;4.492;2022-12-18T07:13:37;28.03;;;9.43;;
44143;SDS011;43510;51.920;4.492;2022-12-18T07:16:06;22.57;;;8.83;;
44143;SDS011;43510;51.920;4.492;2022-12-18T07:18:39;27.93;;;10.87;;
44143;SDS011;43510;51.920;4.492;2022-12-18T07:21:05;24.27;;;9.57;;
44143;SDS011;43510;51.920;4.492;2022-12-18T07:23:32;24.10;;;9.47;;
44143;SDS011;43510;51.920;4.492;2022-12-18T07:26:03;23.43;;;9.07;;
44143;SDS011;43510;51.920;4.492;2022-12-18T07:28:29;25.00;;;9.87;;
44143;SDS011;43510;51.920;4.492;2022-12-18T07:30:55;20.57;;;8.63;;
44143;SDS011;43510;51.920;4.492;2022-12-18T07:33:21;21.70;;;9.70;;
44143;SDS011;43510;51.920;4.492;2022-12-18T07:35:46;27.20;;;10.37;;
44143;SDS011;43510;51.920;4.492;2022-12-18T07:38:12;23.80;;;9.93;;
44143;SDS011;43510;51.920;4.492;2022-12-18T07:40:37;19.40;;;7.97;;
44143;SDS011;43510;51.920;4.492;2022-12-18T07:43:02;19.27;;;7.87;;
44143;SDS011;43510;51.920;4.492;2022-12-18T07:45:28;24.83;;;9.40;;
44143;SDS011;43510;51.920;4.492;2022-12-18T07:47:53;23.40;;;8.90;;
44143;SDS011;43510;51.920;4.492;2022-12-18T07:50:19;22.77;;;9.03;;
44143;SDS011;43510;51.920;4.492;2022-12-18T07:52:44;28.30;;;9.07;;
44143;SDS011;43510;51.920;4.492;2022-12-18T07:55:10;19.67;;;7.83;;
44143;SDS011;43510;51.920;4.492;2022-12-18T07:57:35;23.40;;;9.00;;
44143;SDS011;43510;51.920;4.492;2022-12-18T08:00:00;22.37;;;8.00;;
44143;SDS011;43510;51.920;4.492;2022-12-18T08:02:26;24.97;;;9.20;;
44143;SDS011;43510;51.920;4.492;2022-12-18T08:04:52;19.97;;;8.57;;
44143;SDS011;43510;51.920;4.492;2022-12-18T08:07:18;18.97;;;7.37;;
44143;SDS011;43510;51.920;4.492;2022-12-18T08:09:44;19.50;;;8.50;;
44143;SDS011;43510;51.920;4.492;2022-12-18T08:12:09;19.17;;;8.67;;
44143;SDS011;43510;51.920;4.492;2022-12-18T08:14:34;22.83;;;8.77;;
44143;SDS011;43510;51.920;4.492;2022-12-18T08:17:00;23.53;;;10.00;;
44143;SDS011;43510;51.920;4.492;2022-12-18T08:19:25;22.83;;;8.60;;
44143;SDS011;43510;51.920;4.492;2022-12-18T08:21:52;22.13;;;8.50;;
44143;SDS011;43510;51.920;4.492;2022-12-18T08:24:17;23.73;;;8.10;;
44143;SDS011;43510;51.920;4.492;2022-12-18T08:26:42;23.70;;;7.47;;
44143;SDS011;43510;51.920;4.492;2022-12-18T08:29:08;27.80;;;10.43;;
44143;SDS011;43510;51.920;4.492;2022-12-18T08:31:33;19.53;;;8.33;;
44143;SDS011;43510;51.920;4.492;2022-12-18T08:33:59;18.17;;;7.90;;
44143;SDS011;43510;51.920;4.492;2022-12-18T08:36:24;25.23;;;9.47;;
44143;SDS011;43510;51.920;4.492;2022-12-18T08:38:50;19.20;;;8.07;;
44143;SDS011;43510;51.920;4.492;2022-12-18T08:41:16;17.67;;;8.23;;
44143;SDS011;43510;51.920;4.492;2022-12-18T08:43:43;26.40;;;10.03;;
44143;SDS011;43510;51.920;4.492;2022-12-18T08:46:32;22.50;;;9.17;;
44143;SDS011;43510;51.920;4.492;2022-12-18T08:49:02;23.53;;;8.53;;
44143;SDS011;43510;51.920;4.492;2022-12-18T08:51:28;19.33;;;7.90;;
44143;SDS011;43510;51.920;4.492;2022-12-18T08:53:53;18.87;;;7.83;;
44143;SDS011;43510;51.920;4.492;2022-12-18T08:56:18;19.37;;;8.10;;
44143;SDS011;43510;51.920;4.492;2022-12-18T08:58:44;19.73;;;8.53;;
44143;SDS011;43510;51.920;4.492;2022-12-18T09:01:10;25.23;;;8.00;;
44143;SDS011;43510;51.920;4.492;2022-12-18T09:03:38;22.27;;;8.47;;
44143;SDS011;43510;51.920;4.492;2022-12-18T09:06:03;21.67;;;9.40;;
44143;SDS011;43510;51.920;4.492;2022-12-18T09:08:30;19.07;;;8.93;;
44143;SDS011;43510;51.920;4.492;2022-12-18T09:11:00;17.93;;;7.93;;
44143;SDS011;43510;51.920;4.492;2022-12-18T09:13:25;26.30;;;9.93;;
44143;SDS011;43510;51.920;4.492;2022-12-18T09:15:52;27.53;;;9.93;;
44143;SDS011;43510;51.920;4.492;2022-12-18T09:18:19;24.80;;;8.80;;
44143;SDS011;43510;51.920;4.492;2022-12-18T09:20:46;18.53;;;8.23;;
44143;SDS011;43510;51.920;4.492;2022-12-18T09:23:14;20.13;;;8.70;;
44143;SDS011;43510;51.920;4.492;2022-12-18T09:25:39;15.70;;;6.70;;
44143;SDS011;43510;51.920;4.492;2022-12-18T09:28:09;20.53;;;7.63;;
44143;SDS011;43510;51.920;4.492;2022-12-18T09:30:37;19.70;;;8.43;;
44143;SDS011;43510;51.920;4.492;2022-12-18T09:33:03;21.97;;;8.03;;
44143;SDS011;43510;51.920;4.492;2022-12-18T09:35:30;18.83;;;8.17;;
44143;SDS011;43510;51.920;4.492;2022-12-18T09:37:55;18.07;;;8.07;;
44143;SDS011;43510;51.920;4.492;2022-12-18T09:40:23;20.50;;;8.60;;
44143;SDS011;43510;51.920;4.492;2022-12-18T09:42:55;18.93;;;8.27;;
44143;SDS011;43510;51.920;4.492;2022-12-18T09:45:24;23.17;;;9.50;;
44143;SDS011;43510;51.920;4.492;2022-12-18T09:47:50;22.50;;;8.83;;
44143;SDS011;43510;51.920;4.492;2022-12-18T09:52:44;21.50;;;8.60;;
44143;SDS011;43510;51.920;4.492;2022-12-18T09:55:17;23.27;;;8.17;;
44143;SDS011;43510;51.920;4.492;2022-12-18T09:57:56;25.50;;;7.90;;
44143;SDS011;43510;51.920;4.492;2022-12-18T10:00:30;20.27;;;7.93;;
44143;SDS011;43510;51.920;4.492;2022-12-18T10:02:58;20.97;;;8.47;;
44143;SDS011;43510;51.920;4.492;2022-12-18T10:08:15;17.40;;;6.83;;
44143;SDS011;43510;51.920;4.492;2022-12-18T10:10:43;20.23;;;8.83;;
44143;SDS011;43510;51.920;4.492;2022-12-18T10:16:00;21.13;;;7.97;;
44143;SDS011;43510;51.920;4.492;2022-12-18T10:21:13;19.07;;;7.70;;
44143;SDS011;43510;51.920;4.492;2022-12-18T10:23:54;24.23;;;7.93;;
44143;SDS011;43510;51.920;4.492;2022-12-18T10:26:22;20.93;;;8.43;;
44143;SDS011;43510;51.920;4.492;2022-12-18T10:28:47;21.77;;;7.47;;
44143;SDS011;43510;51.920;4.492;2022-12-18T10:31:17;19.57;;;7.23;;
44143;SDS011;43510;51.920;4.492;2022-12-18T10:33:44;20.63;;;8.10;;
44143;SDS011;43510;51.920;4.492;2022-12-18T10:36:10;18.03;;;6.93;;
44143;SDS011;43510;51.920;4.492;2022-12-18T10:38:36;21.73;;;8.30;;
44143;SDS011;43510;51.920;4.492;2022-12-18T10:41:06;20.57;;;8.67;;
44143;SDS011;43510;51.920;4.492;2022-12-18T10:46:40;17.83;;;7.60;;
44143;SDS011;43510;51.920;4.492;2022-12-18T10:49:07;16.90;;;7.70;;
44143;SDS011;43510;51.920;4.492;2022-12-18T10:51:44;18.43;;;8.07;;
44143;SDS011;43510;51.920;4.492;2022-12-18T10:54:18;17.70;;;7.50;;
44143;SDS011;43510;51.920;4.492;2022-12-18T10:56:46;20.90;;;7.87;;
44143;SDS011;43510;51.920;4.492;2022-12-18T10:59:16;23.23;;;7.73;;
44143;SDS011;43510;51.920;4.492;2022-12-18T11:01:52;17.50;;;8.73;;
44143;SDS011;43510;51.920;4.492;2022-12-18T11:04:25;21.27;;;8.07;;
44143;SDS011;43510;51.920;4.492;2022-12-18T11:07:01;19.57;;;7.27;;
44143;SDS011;43510;51.920;4.492;2022-12-18T11:09:35;17.60;;;7.60;;
44143;SDS011;43510;51.920;4.492;2022-12-18T11:12:03;21.20;;;8.00;;
44143;SDS011;43510;51.920;4.492;2022-12-18T11:17:24;20.37;;;8.63;;
44143;SDS011;43510;51.920;4.492;2022-12-18T11:19:54;16.03;;;7.17;;
44143;SDS011;43510;51.920;4.492;2022-12-18T11:22:29;19.03;;;7.23;;
44143;SDS011;43510;51.920;4.492;2022-12-18T11:25:16;17.03;;;7.67;;
44143;SDS011;43510;51.920;4.492;2022-12-18T11:27:47;17.73;;;8.17;;
44143;SDS011;43510;51.920;4.492;2022-12-18T11:30:32;23.88;;;9.50;;
44143;SDS011;43510;51.920;4.492;2022-12-18T11:38:12;21.97;;;8.63;;
44143;SDS011;43510;51.920;4.492;2022-12-18T11:40:55;20.87;;;8.53;;
44143;SDS011;43510;51.920;4.492;2022-12-18T11:43:29;21.05;;;7.80;;
44143;SDS011;43510;51.920;4.492;2022-12-18T11:46:06;21.57;;;8.70;;
44143;SDS011;43510;51.920;4.492;2022-12-18T11:48:41;21.85;;;8.35;;
44143;SDS011;43510;51.920;4.492;2022-12-18T11:51:37;18.07;;;7.70;;
44143;SDS011;43510;51.920;4.492;2022-12-18T11:54:11;17.27;;;7.60;;
44143;SDS011;43510;51.920;4.492;2022-12-18T12:13:47;18.00;;;7.80;;
44143;SDS011;43510;51.920;4.492;2022-12-18T12:16:41;17.93;;;7.47;;
44143;SDS011;43510;51.920;4.492;2022-12-18T12:33:36;20.83;;;7.30;;
44143;SDS011;43510;51.920;4.492;2022-12-18T12:36:32;17.63;;;7.00;;
44143;SDS011;43510;51.920;4.492;2022-12-18T12:39:29;18.20;;;6.43;;
44143;SDS011;43510;51.920;4.492;2022-12-18T12:41:59;19.38;;;7.65;;
44143;SDS011;43510;51.920;4.492;2022-12-18T12:44:51;18.77;;;7.67;;
44143;SDS011;43510;51.920;4.492;2022-12-18T12:47:41;18.53;;;8.30;;
44143;SDS011;43510;51.920;4.492;2022-12-18T12:50:17;18.20;;;8.17;;
44143;SDS011;43510;51.920;4.492;2022-12-18T12:52:47;20.27;;;8.20;;
44143;SDS011;43510;51.920;4.492;2022-12-18T12:55:18;16.80;;;7.65;;
44143;SDS011;43510;51.920;4.492;2022-12-18T13:00:49;16.63;;;7.47;;
44143;SDS011;43510;51.920;4.492;2022-12-18T13:06:22;17.40;;;7.50;;
44143;SDS011;43510;51.920;4.492;2022-12-18T13:09:01;21.20;;;7.83;;
44143;SDS011;43510;51.920;4.492;2022-12-18T13:11:38;19.90;;;8.27;;
44143;SDS011;43510;51.920;4.492;2022-12-18T13:14:34;20.07;;;7.90;;
44143;SDS011;43510;51.920;4.492;2022-12-18T13:19:52;21.97;;;9.40;;
44143;SDS011;43510;51.920;4.492;2022-12-18T13:22:31;15.17;;;7.43;;
44143;SDS011;43510;51.920;4.492;2022-12-18T13:25:00;21.60;;;8.37;;
44143;SDS011;43510;51.920;4.492;2022-12-18T13:35:51;21.17;;;8.27;;
44143;SDS011;43510;51.920;4.492;2022-12-18T13:48:26;17.93;;;8.70;;
44143;SDS011;43510;51.920;4.492;2022-12-18T13:51:04;18.23;;;8.37;;
44143;SDS011;43510;51.920;4.492;2022-12-18T13:53:46;18.10;;;8.63;;
44143;SDS011;43510;51.920;4.492;2022-12-18T13:56:23;21.33;;;9.20;;
44143;SDS011;43510;51.920;4.492;2022-12-18T14:02:14;18.90;;;8.33;;
44143;SDS011;43510;51.920;4.492;2022-12-18T14:04:44;17.13;;;7.43;;
44143;SDS011;43510;51.920;4.492;2022-12-18T14:07:12;19.50;;;8.30;;
44143;SDS011;43510;51.920;4.492;2022-12-18T14:09:44;22.77;;;8.87;;
44143;SDS011;43510;51.920;4.492;2022-12-18T14:12:20;21.73;;;9.73;;
44143;SDS011;43510;51.920;4.492;2022-12-18T14:15:20;16.97;;;7.80;;
44143;SDS011;43510;51.920;4.492;2022-12-18T14:18:00;20.50;;;8.63;;
44143;SDS011;43510;51.920;4.492;2022-12-18T14:20:29;18.47;;;8.27;;
44143;SDS011;43510;51.920;4.492;2022-12-18T14:22:57;18.77;;;8.33;;
44143;SDS011;43510;51.920;4.492;2022-12-18T14:35:36;19.27;;;8.47;;
44143;SDS011;43510;51.920;4.492;2022-12-18T14:38:21;20.20;;;8.83;;
44143;SDS011;43510;51.920;4.492;2022-12-18T14:41:04;16.57;;;8.30;;
44143;SDS011;43510;51.920;4.492;2022-12-18T14:43:35;21.58;;;8.35;;
44143;SDS011;43510;51.920;4.492;2022-12-18T14:46:03;19.60;;;9.27;;
44143;SDS011;43510;51.920;4.492;2022-12-18T14:48:41;23.10;;;8.87;;
44143;SDS011;43510;51.920;4.492;2022-12-18T14:51:18;21.60;;;8.17;;
44143;SDS011;43510;51.920;4.492;2022-12-18T14:53:46;17.53;;;7.23;;
44143;SDS011;43510;51.920;4.492;2022-12-18T14:56:18;23.00;;;8.03;;
44143;SDS011;43510;51.920;4.492;2022-12-18T14:58:46;21.92;;;8.90;;
44143;SDS011;43510;51.920;4.492;2022-12-18T15:01:24;19.40;;;9.03;;
44143;SDS011;43510;51.920;4.492;2022-12-18T15:03:52;21.17;;;8.63;;
44143;SDS011;43510;51.920;4.492;2022-12-18T15:06:37;21.33;;;8.67;;
44143;SDS011;43510;51.920;4.492;2022-12-18T15:09:24;18.30;;;7.87;;
44143;SDS011;43510;51.920;4.492;2022-12-18T15:11:55;20.00;;;8.03;;
44143;SDS011;43510;51.920;4.492;2022-12-18T15:16:58;20.00;;;9.40;;
44143;SDS011;43510;51.920;4.492;2022-12-18T15:19:35;19.30;;;8.63;;
44143;SDS011;43510;51.920;4.492;2022-12-18T15:22:04;17.40;;;7.37;;
44143;SDS011;43510;51.920;4.492;2022-12-18T15:24:42;20.77;;;7.83;;
44143;SDS011;43510;51.920;4.492;2022-12-18T15:27:19;16.17;;;8.43;;
44143;SDS011;43510;51.920;4.492;2022-12-18T15:29:59;21.57;;;9.17;;
44143;SDS011;43510;51.920;4.492;2022-12-18T15:32:41;19.43;;;7.97;;
44143;SDS011;43510;51.920;4.492;2022-12-18T15:37:49;21.40;;;9.03;;
44143;SDS011;43510;51.920;4.492;2022-12-18T15:40:17;20.43;;;8.67;;
44143;SDS011;43510;51.920;4.492;2022-12-18T15:42:44;18.40;;;8.53;;
44143;SDS011;43510;51.920;4.492;2022-12-18T15:45:31;19.63;;;8.83;;
44143;SDS011;43510;51.920;4.492;2022-12-18T15:47:56;19.50;;;8.30;;
44143;SDS011;43510;51.920;4.492;2022-12-18T15:50:22;22.50;;;9.07;;
44143;SDS011;43510;51.920;4.492;2022-12-18T15:52:49;20.37;;;9.03;;
44143;SDS011;43510;51.920;4.492;2022-12-18T15:55:18;19.57;;;8.47;;
44143;SDS011;43510;51.920;4.492;2022-12-18T15:58:07;23.60;;;9.37;;
44143;SDS011;43510;51.920;4.492;2022-12-18T16:00:34;23.47;;;9.93;;
44143;SDS011;43510;51.920;4.492;2022-12-18T16:03:02;22.10;;;9.40;;
44143;SDS011;43510;51.920;4.492;2022-12-18T16:05:28;19.67;;;9.70;;
44143;SDS011;43510;51.920;4.492;2022-12-18T16:07:54;24.50;;;10.20;;
44143;SDS011;43510;51.920;4.492;2022-12-18T16:10:20;23.83;;;9.33;;
44143;SDS011;43510;51.920;4.492;2022-12-18T16:12:45;19.33;;;9.20;;
44143;SDS011;43510;51.920;4.492;2022-12-18T16:15:14;22.20;;;10.20;;
44143;SDS011;43510;51.920;4.492;2022-12-18T16:17:41;20.20;;;8.50;;
44143;SDS011;43510;51.920;4.492;2022-12-18T16:20:12;19.47;;;8.60;;
44143;SDS011;43510;51.920;4.492;2022-12-18T16:22:41;21.92;;;8.88;;
44143;SDS011;43510;51.920;4.492;2022-12-18T16:25:19;19.13;;;9.40;;
44143;SDS011;43510;51.920;4.492;2022-12-18T16:27:49;22.40;;;9.27;;
44143;SDS011;43510;51.920;4.492;2022-12-18T16:30:15;22.00;;;9.77;;
44143;SDS011;43510;51.920;4.492;2022-12-18T16:32:43;24.27;;;9.33;;
44143;SDS011;43510;51.920;4.492;2022-12-18T16:35:13;21.47;;;8.57;;
44143;SDS011;43510;51.920;4.492;2022-12-18T16:37:40;18.55;;;8.13;;
44143;SDS011;43510;51.920;4.492;2022-12-18T16:40:07;19.77;;;8.43;;
44143;SDS011;43510;51.920;4.492;2022-12-18T16:42:35;22.17;;;9.50;;
44143;SDS011;43510;51.920;4.492;2022-12-18T16:45:04;23.67;;;9.80;;
44143;SDS011;43510;51.920;4.492;2022-12-18T16:47:31;21.37;;;10.17;;
44143;SDS011;43510;51.920;4.492;2022-12-18T16:49:58;20.67;;;9.67;;
44143;SDS011;43510;51.920;4.492;2022-12-18T16:52:25;22.70;;;10.23;;
44143;SDS011;43510;51.920;4.492;2022-12-18T16:54:53;23.93;;;11.10;;